sensor_id;sensor_type;location;lat;lon;timestamp;pressure;altitude;pressure_sealevel;temperature
68446;BMP280;35789;48.414;12.768;2022-11-15T00:00:00;97070.0;;;
68446;BMP280;35789;48.414;12.768;2022-11-15T00:05:00;97070.0;;;
68446;BMP280;35789;48.414;12.768;2022-11-15T00:10:00;97060.0;;;
68446;BMP280;35789;48.414;12.768;2022-11-15T00:15:00;97050.0;;;
68446;BMP280;35789;48.414;12.768;2022-11-15T00:20:00;97060.0;;;
68446;BMP280;35789;48.414;12.768;2022-11-15T00:25:00;97050.0;;;
68446;BMP280;35789;48.414;12.768;2022-11-15T00:30:00;97050.0;;;
68446;BMP280;35789;48.414;12.768;2022-11-15T00:35:00;97050.0;;;
68446;BMP280;35789;48.414;12.768;2022-11-15T00:40:00;97050.0;;;
68446;BMP280;35789;48.414;12.768;2022-11-15T00:45:00;97050.0;;;
68446;BMP280;35789;48.414;12.768;2022-11-15T00:50:00;97040.0;;;
68446;BMP280;35789;48.414;12.768;2022-11-15T00:55:00;97030.0;;;
68446;BMP280;35789;48.414;12.768;2022-11-15T01:00:00;97030.0;;;
68446;BMP280;35789;48.414;12.768;2022-11-15T01:05:00;97030.0;;;
68446;BMP280;35789;48.414;12.768;2022-11-15T01:10:00;97030.0;;;
68446;BMP280;35789;48.414;12.768;2022-11-15T01:15:00;97030.0;;;
68446;BMP280;35789;48.414;12.768;2022-11-15T01:20:00;97030.0;;;
68446;BMP280;35789;48.414;12.768;2022-11-15T01:25:00;97020.0;;;
68446;BMP280;35789;48.414;12.768;2022-11-15T01:30:00;97030.0;;;
68446;BMP280;35789;48.414;12.768;2022-11-15T01:35:00;97020.0;;;
68446;BMP280;35789;48.414;12.768;2022-11-15T01:40:00;97020.0;;;
68446;BMP280;35789;48.414;12.768;2022-11-15T01:45:00;97010.0;;;
68446;BMP280;35789;48.414;12.768;2022-11-15T01:50:05;97010.0;;;
68446;BMP280;35789;48.414;12.768;2022-11-15T01:55:08;97000.0;;;
68446;BMP280;35789;48.414;12.768;2022-11-15T02:00:03;97000.0;;;
68446;BMP280;35789;48.414;12.768;2022-11-15T02:05:00;96990.0;;;
68446;BMP280;35789;48.414;12.768;2022-11-15T02:10:08;96990.0;;;
68446;BMP280;35789;48.414;12.768;2022-11-15T02:15:01;97000.0;;;
68446;BMP280;35789;48.414;12.768;2022-11-15T02:20:27;97000.0;;;
68446;BMP280;35789;48.414;12.768;2022-11-15T02:25:23;96990.0;;;
68446;BMP280;35789;48.414;12.768;2022-11-15T02:30:16;96990.0;;;
68446;BMP280;35789;48.414;12.768;2022-11-15T02:35:12;96980.0;;;
68446;BMP280;35789;48.414;12.768;2022-11-15T02:40:07;96970.0;;;
68446;BMP280;35789;48.414;12.768;2022-11-15T02:45:07;96960.0;;;
68446;BMP280;35789;48.414;12.768;2022-11-15T02:50:07;96950.0;;;
68446;BMP280;35789;48.414;12.768;2022-11-15T02:55:01;96940.0;;;
68446;BMP280;35789;48.414;12.768;2022-11-15T03:00:06;96940.0;;;
68446;BMP280;35789;48.414;12.768;2022-11-15T03:05:13;96940.0;;;
68446;BMP280;35789;48.414;12.768;2022-11-15T03:10:08;96940.0;;;
68446;BMP280;35789;48.414;12.768;2022-11-15T03:15:06;96940.0;;;
68446;BMP280;35789;48.414;12.768;2022-11-15T03:20:04;96930.0;;;
68446;BMP280;35789;48.414;12.768;2022-11-15T03:25:07;96930.0;;;
68446;BMP280;35789;48.414;12.768;2022-11-15T03:30:05;96930.0;;;
68446;BMP280;35789;48.414;12.768;2022-11-15T03:35:03;96930.0;;;
68446;BMP280;35789;48.414;12.768;2022-11-15T03:40:02;96930.0;;;
68446;BMP280;35789;48.414;12.768;2022-11-15T03:45:12;96930.0;;;
68446;BMP280;35789;48.414;12.768;2022-11-15T03:50:07;96920.0;;;
68446;BMP280;35789;48.414;12.768;2022-11-15T03:55:03;96920.0;;;
68446;BMP280;35789;48.414;12.768;2022-11-15T04:00:00;96910.0;;;
68446;BMP280;35789;48.414;12.768;2022-11-15T04:05:00;96910.0;;;
68446;BMP280;35789;48.414;12.768;2022-11-15T04:10:00;96910.0;;;
68446;BMP280;35789;48.414;12.768;2022-11-15T04:15:03;96910.0;;;
68446;BMP280;35789;48.414;12.768;2022-11-15T04:20:00;96910.0;;;
68446;BMP280;35789;48.414;12.768;2022-11-15T04:25:00;96910.0;;;
68446;BMP280;35789;48.414;12.768;2022-11-15T04:30:00;96900.0;;;
68446;BMP280;35789;48.414;12.768;2022-11-15T04:35:00;96890.0;;;
68446;BMP280;35789;48.414;12.768;2022-11-15T04:40:00;96890.0;;;
68446;BMP280;35789;48.414;12.768;2022-11-15T04:50:00;96880.0;;;
68446;BMP280;35789;48.414;12.768;2022-11-15T04:55:00;96870.0;;;
68446;BMP280;35789;48.414;12.768;2022-11-15T05:00:00;96870.0;;;
68446;BMP280;35789;48.414;12.768;2022-11-15T05:05:00;96860.0;;;
68446;BMP280;35789;48.414;12.768;2022-11-15T05:10:00;96860.0;;;
68446;BMP280;35789;48.414;12.768;2022-11-15T05:15:01;96850.0;;;
68446;BMP280;35789;48.414;12.768;2022-11-15T05:20:00;96850.0;;;
68446;BMP280;35789;48.414;12.768;2022-11-15T05:25:00;96840.0;;;
68446;BMP280;35789;48.414;12.768;2022-11-15T05:30:00;96840.0;;;
68446;BMP280;35789;48.414;12.768;2022-11-15T05:35:00;96830.0;;;
68446;BMP280;35789;48.414;12.768;2022-11-15T05:40:00;96830.0;;;
68446;BMP280;35789;48.414;12.768;2022-11-15T05:45:03;96830.0;;;
68446;BMP280;35789;48.414;12.768;2022-11-15T05:50:00;96830.0;;;
68446;BMP280;35789;48.414;12.768;2022-11-15T05:55:02;96830.0;;;
68446;BMP280;35789;48.414;12.768;2022-11-15T06:00:02;96830.0;;;
68446;BMP280;35789;48.414;12.768;2022-11-15T06:05:00;96830.0;;;
68446;BMP280;35789;48.414;12.768;2022-11-15T06:10:00;96830.0;;;
68446;BMP280;35789;48.414;12.768;2022-11-15T06:15:00;96840.0;;;
68446;BMP280;35789;48.414;12.768;2022-11-15T06:20:00;96830.0;;;
68446;BMP280;35789;48.414;12.768;2022-11-15T06:25:00;96820.0;;;
68446;BMP280;35789;48.414;12.768;2022-11-15T06:30:00;96830.0;;;
68446;BMP280;35789;48.414;12.768;2022-11-15T06:35:00;96830.0;;;
68446;BMP280;35789;48.414;12.768;2022-11-15T06:40:00;96840.0;;;
68446;BMP280;35789;48.414;12.768;2022-11-15T06:45:01;96830.0;;;
68446;BMP280;35789;48.414;12.768;2022-11-15T06:50:00;96830.0;;;
68446;BMP280;35789;48.414;12.768;2022-11-15T06:55:00;96830.0;;;
68446;BMP280;35789;48.414;12.768;2022-11-15T07:00:00;96830.0;;;
68446;BMP280;35789;48.414;12.768;2022-11-15T07:05:00;96840.0;;;
68446;BMP280;35789;48.414;12.768;2022-11-15T07:10:00;96840.0;;;
68446;BMP280;35789;48.414;12.768;2022-11-15T07:15:00;96840.0;;;
68446;BMP280;35789;48.414;12.768;2022-11-15T07:20:00;96840.0;;;
68446;BMP280;35789;48.414;12.768;2022-11-15T07:25:00;96830.0;;;
68446;BMP280;35789;48.414;12.768;2022-11-15T07:30:00;96820.0;;;
68446;BMP280;35789;48.414;12.768;2022-11-15T07:35:00;96820.0;;;
68446;BMP280;35789;48.414;12.768;2022-11-15T07:40:00;96820.0;;;
68446;BMP280;35789;48.414;12.768;2022-11-15T07:45:00;96820.0;;;
68446;BMP280;35789;48.414;12.768;2022-11-15T07:50:00;96810.0;;;
68446;BMP280;35789;48.414;12.768;2022-11-15T07:55:00;96810.0;;;
68446;BMP280;35789;48.414;12.768;2022-11-15T08:00:00;96800.0;;;
68446;BMP280;35789;48.414;12.768;2022-11-15T08:05:00;96800.0;;;
68446;BMP280;35789;48.414;12.768;2022-11-15T08:10:00;96800.0;;;
68446;BMP280;35789;48.414;12.768;2022-11-15T08:15:00;96800.0;;;
68446;BMP280;35789;48.414;12.768;2022-11-15T08:20:00;96780.0;;;
68446;BMP280;35789;48.414;12.768;2022-11-15T08:25:00;96780.0;;;
68446;BMP280;35789;48.414;12.768;2022-11-15T08:30:00;96780.0;;;
68446;BMP280;35789;48.414;12.768;2022-11-15T08:35:00;96770.0;;;
68446;BMP280;35789;48.414;12.768;2022-11-15T08:40:00;96780.0;;;
68446;BMP280;35789;48.414;12.768;2022-11-15T08:45:00;96770.0;;;
68446;BMP280;35789;48.414;12.768;2022-11-15T08:50:00;96760.0;;;
68446;BMP280;35789;48.414;12.768;2022-11-15T08:55:00;96760.0;;;
68446;BMP280;35789;48.414;12.768;2022-11-15T09:00:00;96760.0;;;
68446;BMP280;35789;48.414;12.768;2022-11-15T09:05:00;96760.0;;;
68446;BMP280;35789;48.414;12.768;2022-11-15T09:10:00;96760.0;;;
68446;BMP280;35789;48.414;12.768;2022-11-15T09:15:00;96750.0;;;
68446;BMP280;35789;48.414;12.768;2022-11-15T09:20:00;96740.0;;;
68446;BMP280;35789;48.414;12.768;2022-11-15T09:25:00;96740.0;;;
68446;BMP280;35789;48.414;12.768;2022-11-15T09:30:00;96740.0;;;
68446;BMP280;35789;48.414;12.768;2022-11-15T09:35:00;96730.0;;;
68446;BMP280;35789;48.414;12.768;2022-11-15T09:40:00;96710.0;;;
68446;BMP280;35789;48.414;12.768;2022-11-15T09:45:15;96720.0;;;
68446;BMP280;35789;48.414;12.768;2022-11-15T09:50:09;96710.0;;;
68446;BMP280;35789;48.414;12.768;2022-11-15T09:55:00;96700.0;;;
68446;BMP280;35789;48.414;12.768;2022-11-15T10:00:11;96690.0;;;
68446;BMP280;35789;48.414;12.768;2022-11-15T10:05:01;96680.0;;;
68446;BMP280;35789;48.414;12.768;2022-11-15T10:10:08;96670.0;;;
68446;BMP280;35789;48.414;12.768;2022-11-15T10:15:05;96650.0;;;
68446;BMP280;35789;48.414;12.768;2022-11-15T10:20:12;96640.0;;;
68446;BMP280;35789;48.414;12.768;2022-11-15T10:25:14;96620.0;;;
68446;BMP280;35789;48.414;12.768;2022-11-15T10:30:00;96610.0;;;
68446;BMP280;35789;48.414;12.768;2022-11-15T10:35:22;96590.0;;;
68446;BMP280;35789;48.414;12.768;2022-11-15T10:45:00;96580.0;;;
68446;BMP280;35789;48.414;12.768;2022-11-15T10:50:04;96580.0;;;
68446;BMP280;35789;48.414;12.768;2022-11-15T10:55:12;96580.0;;;
68446;BMP280;35789;48.414;12.768;2022-11-15T11:00:04;96570.0;;;
68446;BMP280;35789;48.414;12.768;2022-11-15T11:05:03;96550.0;;;
68446;BMP280;35789;48.414;12.768;2022-11-15T11:10:04;96540.0;;;
68446;BMP280;35789;48.414;12.768;2022-11-15T11:15:10;96540.0;;;
68446;BMP280;35789;48.414;12.768;2022-11-15T11:20:09;96530.0;;;
68446;BMP280;35789;48.414;12.768;2022-11-15T11:25:19;96530.0;;;
68446;BMP280;35789;48.414;12.768;2022-11-15T11:30:09;96520.0;;;
68446;BMP280;35789;48.414;12.768;2022-11-15T11:35:10;96500.0;;;
68446;BMP280;35789;48.414;12.768;2022-11-15T11:40:20;96500.0;;;
68446;BMP280;35789;48.414;12.768;2022-11-15T11:45:15;96480.0;;;
68446;BMP280;35789;48.414;12.768;2022-11-15T11:50:11;96470.0;;;
68446;BMP280;35789;48.414;12.768;2022-11-15T11:55:13;96450.0;;;
68446;BMP280;35789;48.414;12.768;2022-11-15T12:00:14;96450.0;;;
68446;BMP280;35789;48.414;12.768;2022-11-15T12:05:10;96430.0;;;
68446;BMP280;35789;48.414;12.768;2022-11-15T12:10:20;96420.0;;;
68446;BMP280;35789;48.414;12.768;2022-11-15T12:15:12;96420.0;;;
68446;BMP280;35789;48.414;12.768;2022-11-15T12:20:06;96410.0;;;
68446;BMP280;35789;48.414;12.768;2022-11-15T12:25:06;96420.0;;;
68446;BMP280;35789;48.414;12.768;2022-11-15T12:30:09;96410.0;;;
68446;BMP280;35789;48.414;12.768;2022-11-15T12:35:03;96400.0;;;
68446;BMP280;35789;48.414;12.768;2022-11-15T12:40:18;96410.0;;;
68446;BMP280;35789;48.414;12.768;2022-11-15T12:45:00;96400.0;;;
68446;BMP280;35789;48.414;12.768;2022-11-15T12:50:00;96390.0;;;
68446;BMP280;35789;48.414;12.768;2022-11-15T13:10:07;96370.0;;;
68446;BMP280;35789;48.414;12.768;2022-11-15T13:20:19;96370.0;;;
68446;BMP280;35789;48.414;12.768;2022-11-15T13:25:01;96360.0;;;
68446;BMP280;35789;48.414;12.768;2022-11-15T13:30:00;96360.0;;;
68446;BMP280;35789;48.414;12.768;2022-11-15T13:35:00;96350.0;;;
68446;BMP280;35789;48.414;12.768;2022-11-15T13:40:20;96340.0;;;
68446;BMP280;35789;48.414;12.768;2022-11-15T13:45:04;96340.0;;;
68446;BMP280;35789;48.414;12.768;2022-11-15T13:50:00;96330.0;;;
68446;BMP280;35789;48.414;12.768;2022-11-15T13:55:05;96330.0;;;
68446;BMP280;35789;48.414;12.768;2022-11-15T14:00:03;96330.0;;;
68446;BMP280;35789;48.414;12.768;2022-11-15T14:05:14;96320.0;;;
68446;BMP280;35789;48.414;12.768;2022-11-15T14:10:24;96320.0;;;
68446;BMP280;35789;48.414;12.768;2022-11-15T14:15:18;96310.0;;;
68446;BMP280;35789;48.414;12.768;2022-11-15T14:20:01;96310.0;;;
68446;BMP280;35789;48.414;12.768;2022-11-15T14:25:17;96310.0;;;
68446;BMP280;35789;48.414;12.768;2022-11-15T14:30:00;96310.0;;;
68446;BMP280;35789;48.414;12.768;2022-11-15T14:35:02;96300.0;;;
68446;BMP280;35789;48.414;12.768;2022-11-15T14:40:01;96300.0;;;
68446;BMP280;35789;48.414;12.768;2022-11-15T14:45:00;96290.0;;;
68446;BMP280;35789;48.414;12.768;2022-11-15T14:50:00;96290.0;;;
68446;BMP280;35789;48.414;12.768;2022-11-15T14:55:02;96290.0;;;
68446;BMP280;35789;48.414;12.768;2022-11-15T15:05:00;96280.0;;;
68446;BMP280;35789;48.414;12.768;2022-11-15T15:10:00;96280.0;;;
68446;BMP280;35789;48.414;12.768;2022-11-15T15:15:00;96280.0;;;
68446;BMP280;35789;48.414;12.768;2022-11-15T15:20:00;96280.0;;;
68446;BMP280;35789;48.414;12.768;2022-11-15T15:25:00;96280.0;;;
68446;BMP280;35789;48.414;12.768;2022-11-15T15:30:00;96280.0;;;
68446;BMP280;35789;48.414;12.768;2022-11-15T15:35:00;96280.0;;;
68446;BMP280;35789;48.414;12.768;2022-11-15T15:45:00;96280.0;;;
68446;BMP280;35789;48.414;12.768;2022-11-15T15:50:01;96280.0;;;
68446;BMP280;35789;48.414;12.768;2022-11-15T15:55:00;96270.0;;;
68446;BMP280;35789;48.414;12.768;2022-11-15T16:00:00;96280.0;;;
68446;BMP280;35789;48.414;12.768;2022-11-15T16:05:00;96280.0;;;
68446;BMP280;35789;48.414;12.768;2022-11-15T16:10:00;96280.0;;;
68446;BMP280;35789;48.414;12.768;2022-11-15T16:15:02;96270.0;;;
68446;BMP280;35789;48.414;12.768;2022-11-15T16:20:01;96270.0;;;
68446;BMP280;35789;48.414;12.768;2022-11-15T16:25:00;96270.0;;;
68446;BMP280;35789;48.414;12.768;2022-11-15T16:30:00;96260.0;;;
68446;BMP280;35789;48.414;12.768;2022-11-15T16:35:00;96270.0;;;
68446;BMP280;35789;48.414;12.768;2022-11-15T16:40:00;96270.0;;;
68446;BMP280;35789;48.414;12.768;2022-11-15T16:45:00;96270.0;;;
68446;BMP280;35789;48.414;12.768;2022-11-15T16:50:00;96270.0;;;
68446;BMP280;35789;48.414;12.768;2022-11-15T16:55:00;96280.0;;;
68446;BMP280;35789;48.414;12.768;2022-11-15T17:00:00;96280.0;;;
68446;BMP280;35789;48.414;12.768;2022-11-15T17:05:00;96280.0;;;
68446;BMP280;35789;48.414;12.768;2022-11-15T17:10:00;96280.0;;;
68446;BMP280;35789;48.414;12.768;2022-11-15T17:15:01;96280.0;;;
68446;BMP280;35789;48.414;12.768;2022-11-15T17:20:00;96280.0;;;
68446;BMP280;35789;48.414;12.768;2022-11-15T17:25:00;96280.0;;;
68446;BMP280;35789;48.414;12.768;2022-11-15T17:30:00;96290.0;;;
68446;BMP280;35789;48.414;12.768;2022-11-15T17:35:00;96280.0;;;
68446;BMP280;35789;48.414;12.768;2022-11-15T17:40:00;96290.0;;;
68446;BMP280;35789;48.414;12.768;2022-11-15T17:45:00;96290.0;;;
68446;BMP280;35789;48.414;12.768;2022-11-15T17:50:00;96290.0;;;
68446;BMP280;35789;48.414;12.768;2022-11-15T17:55:00;96300.0;;;
68446;BMP280;35789;48.414;12.768;2022-11-15T18:00:00;96300.0;;;
68446;BMP280;35789;48.414;12.768;2022-11-15T18:05:00;96310.0;;;
68446;BMP280;35789;48.414;12.768;2022-11-15T18:10:00;96310.0;;;
68446;BMP280;35789;48.414;12.768;2022-11-15T18:15:00;96310.0;;;
68446;BMP280;35789;48.414;12.768;2022-11-15T18:20:00;96310.0;;;
68446;BMP280;35789;48.414;12.768;2022-11-15T18:25:00;96310.0;;;
68446;BMP280;35789;48.414;12.768;2022-11-15T18:30:00;96300.0;;;
68446;BMP280;35789;48.414;12.768;2022-11-15T18:35:00;96300.0;;;
68446;BMP280;35789;48.414;12.768;2022-11-15T18:40:00;96290.0;;;
68446;BMP280;35789;48.414;12.768;2022-11-15T18:45:00;96280.0;;;
68446;BMP280;35789;48.414;12.768;2022-11-15T18:50:00;96280.0;;;
68446;BMP280;35789;48.414;12.768;2022-11-15T19:00:00;96270.0;;;
68446;BMP280;35789;48.414;12.768;2022-11-15T19:05:00;96260.0;;;
68446;BMP280;35789;48.414;12.768;2022-11-15T19:10:00;96250.0;;;
68446;BMP280;35789;48.414;12.768;2022-11-15T19:15:00;96240.0;;;
68446;BMP280;35789;48.414;12.768;2022-11-15T19:20:00;96230.0;;;
68446;BMP280;35789;48.414;12.768;2022-11-15T19:25:00;96230.0;;;
68446;BMP280;35789;48.414;12.768;2022-11-15T19:30:00;96240.0;;;
68446;BMP280;35789;48.414;12.768;2022-11-15T19:35:00;96250.0;;;
68446;BMP280;35789;48.414;12.768;2022-11-15T19:40:00;96250.0;;;
68446;BMP280;35789;48.414;12.768;2022-11-15T19:45:00;96250.0;;;
68446;BMP280;35789;48.414;12.768;2022-11-15T19:50:00;96250.0;;;
68446;BMP280;35789;48.414;12.768;2022-11-15T19:55:00;96250.0;;;
68446;BMP280;35789;48.414;12.768;2022-11-15T20:00:00;96240.0;;;
68446;BMP280;35789;48.414;12.768;2022-11-15T20:05:00;96240.0;;;
68446;BMP280;35789;48.414;12.768;2022-11-15T20:10:00;96250.0;;;
68446;BMP280;35789;48.414;12.768;2022-11-15T20:15:00;96240.0;;;
68446;BMP280;35789;48.414;12.768;2022-11-15T20:20:00;96240.0;;;
68446;BMP280;35789;48.414;12.768;2022-11-15T20:25:00;96260.0;;;
68446;BMP280;35789;48.414;12.768;2022-11-15T20:30:00;96240.0;;;
68446;BMP280;35789;48.414;12.768;2022-11-15T20:35:00;96240.0;;;
68446;BMP280;35789;48.414;12.768;2022-11-15T20:40:00;96240.0;;;
68446;BMP280;35789;48.414;12.768;2022-11-15T20:45:00;96240.0;;;
68446;BMP280;35789;48.414;12.768;2022-11-15T20:50:00;96230.0;;;
68446;BMP280;35789;48.414;12.768;2022-11-15T20:55:00;96220.0;;;
68446;BMP280;35789;48.414;12.768;2022-11-15T21:00:00;96200.0;;;
68446;BMP280;35789;48.414;12.768;2022-11-15T21:05:00;96200.0;;;
68446;BMP280;35789;48.414;12.768;2022-11-15T21:10:00;96200.0;;;
68446;BMP280;35789;48.414;12.768;2022-11-15T21:15:00;96180.0;;;
68446;BMP280;35789;48.414;12.768;2022-11-15T21:20:00;96180.0;;;
68446;BMP280;35789;48.414;12.768;2022-11-15T21:25:00;96180.0;;;
68446;BMP280;35789;48.414;12.768;2022-11-15T21:30:00;96180.0;;;
68446;BMP280;35789;48.414;12.768;2022-11-15T21:35:00;96170.0;;;
68446;BMP280;35789;48.414;12.768;2022-11-15T21:40:00;96170.0;;;
68446;BMP280;35789;48.414;12.768;2022-11-15T21:45:00;96160.0;;;
68446;BMP280;35789;48.414;12.768;2022-11-15T21:50:00;96150.0;;;
68446;BMP280;35789;48.414;12.768;2022-11-15T21:55:00;96130.0;;;
68446;BMP280;35789;48.414;12.768;2022-11-15T22:00:00;96120.0;;;
68446;BMP280;35789;48.414;12.768;2022-11-15T22:05:00;96120.0;;;
68446;BMP280;35789;48.414;12.768;2022-11-15T22:10:00;96110.0;;;
68446;BMP280;35789;48.414;12.768;2022-11-15T22:15:00;96110.0;;;
68446;BMP280;35789;48.414;12.768;2022-11-15T22:20:00;96110.0;;;
68446;BMP280;35789;48.414;12.768;2022-11-15T22:25:00;96100.0;;;
68446;BMP280;35789;48.414;12.768;2022-11-15T22:30:00;96090.0;;;
68446;BMP280;35789;48.414;12.768;2022-11-15T22:35:00;96080.0;;;
68446;BMP280;35789;48.414;12.768;2022-11-15T22:40:00;96070.0;;;
68446;BMP280;35789;48.414;12.768;2022-11-15T22:45:00;96060.0;;;
68446;BMP280;35789;48.414;12.768;2022-11-15T22:50:00;96070.0;;;
68446;BMP280;35789;48.414;12.768;2022-11-15T22:55:00;96050.0;;;
68446;BMP280;35789;48.414;12.768;2022-11-15T23:00:00;96050.0;;;
68446;BMP280;35789;48.414;12.768;2022-11-15T23:05:00;96060.0;;;
68446;BMP280;35789;48.414;12.768;2022-11-15T23:10:00;96050.0;;;
68446;BMP280;35789;48.414;12.768;2022-11-15T23:15:00;96040.0;;;
68446;BMP280;35789;48.414;12.768;2022-11-15T23:20:00;96040.0;;;
68446;BMP280;35789;48.414;12.768;2022-11-15T23:25:00;96040.0;;;
68446;BMP280;35789;48.414;12.768;2022-11-15T23:30:00;96020.0;;;
68446;BMP280;35789;48.414;12.768;2022-11-15T23:35:00;96010.0;;;
68446;BMP280;35789;48.414;12.768;2022-11-15T23:40:00;96000.0;;;
68446;BMP280;35789;48.414;12.768;2022-11-15T23:45:00;96000.0;;;
68446;BMP280;35789;48.414;12.768;2022-11-15T23:50:00;95980.0;;;
68446;BMP280;35789;48.414;12.768;2022-11-15T23:55:00;95980.0;;;
